sensor_id;sensor_type;location;lat;lon;timestamp;temperature;humidity
23471;DHT22;11908;50.806;4.424;2023-04-03T00:00:06;3.40;99.90
23471;DHT22;11908;50.806;4.424;2023-04-03T00:02:33;3.40;99.90
23471;DHT22;11908;50.806;4.424;2023-04-03T00:04:58;3.40;99.90
23471;DHT22;11908;50.806;4.424;2023-04-03T00:07:24;3.40;99.90
23471;DHT22;11908;50.806;4.424;2023-04-03T00:09:50;3.30;99.90
23471;DHT22;11908;50.806;4.424;2023-04-03T00:12:15;3.30;99.90
23471;DHT22;11908;50.806;4.424;2023-04-03T00:14:41;3.20;99.90
23471;DHT22;11908;50.806;4.424;2023-04-03T00:17:07;3.30;99.90
23471;DHT22;11908;50.806;4.424;2023-04-03T00:19:32;3.30;99.90
23471;DHT22;11908;50.806;4.424;2023-04-03T00:21:58;3.20;99.90
23471;DHT22;11908;50.806;4.424;2023-04-03T00:24:24;3.20;99.90
23471;DHT22;11908;50.806;4.424;2023-04-03T00:26:50;3.20;99.90
23471;DHT22;11908;50.806;4.424;2023-04-03T00:29:15;3.10;99.90
23471;DHT22;11908;50.806;4.424;2023-04-03T00:31:41;3.10;99.90
23471;DHT22;11908;50.806;4.424;2023-04-03T00:34:07;3.10;99.90
23471;DHT22;11908;50.806;4.424;2023-04-03T00:36:33;3.10;99.90
23471;DHT22;11908;50.806;4.424;2023-04-03T00:38:58;3.10;99.90
23471;DHT22;11908;50.806;4.424;2023-04-03T00:41:24;3.10;99.90
23471;DHT22;11908;50.806;4.424;2023-04-03T00:43:50;3.10;99.90
23471;DHT22;11908;50.806;4.424;2023-04-03T00:46:16;3.20;99.90
23471;DHT22;11908;50.806;4.424;2023-04-03T00:48:46;3.20;99.90
23471;DHT22;11908;50.806;4.424;2023-04-03T00:51:24;3.20;99.90
23471;DHT22;11908;50.806;4.424;2023-04-03T00:53:59;3.20;99.90
23471;DHT22;11908;50.806;4.424;2023-04-03T00:56:27;3.20;99.90
23471;DHT22;11908;50.806;4.424;2023-04-03T00:59:15;3.20;99.90
23471;DHT22;11908;50.806;4.424;2023-04-03T01:04:39;3.20;99.90
23471;DHT22;11908;50.806;4.424;2023-04-03T01:07:18;3.20;99.90
23471;DHT22;11908;50.806;4.424;2023-04-03T01:09:45;3.10;99.90
23471;DHT22;11908;50.806;4.424;2023-04-03T01:14:53;3.10;99.90
23471;DHT22;11908;50.806;4.424;2023-04-03T01:17:41;3.10;99.90
23471;DHT22;11908;50.806;4.424;2023-04-03T01:22:57;3.00;99.90
23471;DHT22;11908;50.806;4.424;2023-04-03T01:25:26;3.00;99.90
23471;DHT22;11908;50.806;4.424;2023-04-03T01:27:51;3.00;99.90
23471;DHT22;11908;50.806;4.424;2023-04-03T01:30:19;2.90;99.90
23471;DHT22;11908;50.806;4.424;2023-04-03T01:32:45;2.90;99.90
23471;DHT22;11908;50.806;4.424;2023-04-03T01:35:12;3.00;99.90
23471;DHT22;11908;50.806;4.424;2023-04-03T01:37:38;3.00;99.90
23471;DHT22;11908;50.806;4.424;2023-04-03T01:40:04;3.00;99.90
23471;DHT22;11908;50.806;4.424;2023-04-03T01:42:31;3.00;99.90
23471;DHT22;11908;50.806;4.424;2023-04-03T01:44:56;3.00;99.90
23471;DHT22;11908;50.806;4.424;2023-04-03T01:47:22;2.90;99.90
23471;DHT22;11908;50.806;4.424;2023-04-03T01:49:48;3.00;99.90
23471;DHT22;11908;50.806;4.424;2023-04-03T01:52:13;3.00;99.90
23471;DHT22;11908;50.806;4.424;2023-04-03T01:54:39;2.90;99.90
23471;DHT22;11908;50.806;4.424;2023-04-03T01:57:05;2.80;99.90
23471;DHT22;11908;50.806;4.424;2023-04-03T01:59:31;2.80;99.90
23471;DHT22;11908;50.806;4.424;2023-04-03T02:01:56;2.80;99.90
23471;DHT22;11908;50.806;4.424;2023-04-03T02:04:22;2.80;99.90
23471;DHT22;11908;50.806;4.424;2023-04-03T02:06:48;2.80;99.90
23471;DHT22;11908;50.806;4.424;2023-04-03T02:09:14;2.90;99.90
23471;DHT22;11908;50.806;4.424;2023-04-03T02:11:40;2.80;99.90
23471;DHT22;11908;50.806;4.424;2023-04-03T02:14:06;2.80;99.90
23471;DHT22;11908;50.806;4.424;2023-04-03T02:16:31;2.80;99.90
23471;DHT22;11908;50.806;4.424;2023-04-03T02:18:57;2.80;99.90
23471;DHT22;11908;50.806;4.424;2023-04-03T02:21:23;2.80;99.90
23471;DHT22;11908;50.806;4.424;2023-04-03T02:23:49;2.80;99.90
23471;DHT22;11908;50.806;4.424;2023-04-03T02:26:16;2.70;99.90
23471;DHT22;11908;50.806;4.424;2023-04-03T02:28:42;2.70;99.90
23471;DHT22;11908;50.806;4.424;2023-04-03T02:31:09;2.70;99.90
23471;DHT22;11908;50.806;4.424;2023-04-03T02:33:36;2.70;99.90
23471;DHT22;11908;50.806;4.424;2023-04-03T02:36:06;2.80;99.90
23471;DHT22;11908;50.806;4.424;2023-04-03T02:38:32;2.70;99.90
23471;DHT22;11908;50.806;4.424;2023-04-03T02:41:09;2.80;99.90
23471;DHT22;11908;50.806;4.424;2023-04-03T02:43:36;2.80;99.90
23471;DHT22;11908;50.806;4.424;2023-04-03T02:46:02;2.70;99.90
23471;DHT22;11908;50.806;4.424;2023-04-03T02:48:28;2.70;99.90
23471;DHT22;11908;50.806;4.424;2023-04-03T02:50:54;2.70;99.90
23471;DHT22;11908;50.806;4.424;2023-04-03T02:53:19;2.70;99.90
23471;DHT22;11908;50.806;4.424;2023-04-03T02:55:46;2.70;99.90
23471;DHT22;11908;50.806;4.424;2023-04-03T02:58:12;2.60;99.90
23471;DHT22;11908;50.806;4.424;2023-04-03T03:00:37;2.60;99.90
23471;DHT22;11908;50.806;4.424;2023-04-03T03:03:03;2.60;99.90
23471;DHT22;11908;50.806;4.424;2023-04-03T03:05:29;2.60;99.90
23471;DHT22;11908;50.806;4.424;2023-04-03T03:07:55;2.60;99.90
23471;DHT22;11908;50.806;4.424;2023-04-03T03:10:21;2.60;99.90
23471;DHT22;11908;50.806;4.424;2023-04-03T03:12:47;2.70;99.90
23471;DHT22;11908;50.806;4.424;2023-04-03T03:15:12;2.70;99.90
23471;DHT22;11908;50.806;4.424;2023-04-03T03:17:38;2.60;99.90
23471;DHT22;11908;50.806;4.424;2023-04-03T03:20:05;2.60;99.90
23471;DHT22;11908;50.806;4.424;2023-04-03T03:22:31;2.50;99.90
23471;DHT22;11908;50.806;4.424;2023-04-03T03:24:57;2.50;99.90
23471;DHT22;11908;50.806;4.424;2023-04-03T03:27:22;2.40;99.90
23471;DHT22;11908;50.806;4.424;2023-04-03T03:29:49;2.30;99.90
23471;DHT22;11908;50.806;4.424;2023-04-03T03:32:15;2.40;99.90
23471;DHT22;11908;50.806;4.424;2023-04-03T03:34:41;2.40;99.90
23471;DHT22;11908;50.806;4.424;2023-04-03T03:37:07;2.40;99.90
23471;DHT22;11908;50.806;4.424;2023-04-03T03:39:32;2.30;99.90
23471;DHT22;11908;50.806;4.424;2023-04-03T03:41:58;2.30;99.90
23471;DHT22;11908;50.806;4.424;2023-04-03T03:44:24;2.30;99.90
23471;DHT22;11908;50.806;4.424;2023-04-03T03:46:49;2.30;99.90
23471;DHT22;11908;50.806;4.424;2023-04-03T03:49:15;2.30;99.90
23471;DHT22;11908;50.806;4.424;2023-04-03T03:51:41;2.20;99.90
23471;DHT22;11908;50.806;4.424;2023-04-03T03:54:07;2.20;99.90
23471;DHT22;11908;50.806;4.424;2023-04-03T03:56:34;2.20;99.90
23471;DHT22;11908;50.806;4.424;2023-04-03T03:59:00;2.20;99.90
23471;DHT22;11908;50.806;4.424;2023-04-03T04:01:25;2.20;99.90
23471;DHT22;11908;50.806;4.424;2023-04-03T04:03:51;2.10;99.90
23471;DHT22;11908;50.806;4.424;2023-04-03T04:06:19;2.10;99.90
23471;DHT22;11908;50.806;4.424;2023-04-03T04:08:45;2.10;99.90
23471;DHT22;11908;50.806;4.424;2023-04-03T04:11:10;2.10;99.90
23471;DHT22;11908;50.806;4.424;2023-04-03T04:13:36;2.10;99.90
23471;DHT22;11908;50.806;4.424;2023-04-03T04:16:02;2.10;99.90
23471;DHT22;11908;50.806;4.424;2023-04-03T04:18:28;2.00;99.90
23471;DHT22;11908;50.806;4.424;2023-04-03T04:20:54;2.00;99.90
23471;DHT22;11908;50.806;4.424;2023-04-03T04:23:19;2.00;99.90
23471;DHT22;11908;50.806;4.424;2023-04-03T04:25:46;1.90;99.90
23471;DHT22;11908;50.806;4.424;2023-04-03T04:28:12;1.90;99.90
23471;DHT22;11908;50.806;4.424;2023-04-03T04:30:38;1.90;99.90
23471;DHT22;11908;50.806;4.424;2023-04-03T04:33:04;1.90;99.90
23471;DHT22;11908;50.806;4.424;2023-04-03T04:35:30;1.90;99.90
23471;DHT22;11908;50.806;4.424;2023-04-03T04:37:55;1.80;99.90
23471;DHT22;11908;50.806;4.424;2023-04-03T04:40:21;1.80;99.90
23471;DHT22;11908;50.806;4.424;2023-04-03T04:42:47;1.80;99.90
23471;DHT22;11908;50.806;4.424;2023-04-03T04:45:13;1.80;99.90
23471;DHT22;11908;50.806;4.424;2023-04-03T04:47:40;1.70;99.90
23471;DHT22;11908;50.806;4.424;2023-04-03T04:50:07;1.70;99.90
23471;DHT22;11908;50.806;4.424;2023-04-03T04:52:33;1.70;99.90
23471;DHT22;11908;50.806;4.424;2023-04-03T04:54:58;1.80;99.90
23471;DHT22;11908;50.806;4.424;2023-04-03T04:57:25;1.80;99.90
23471;DHT22;11908;50.806;4.424;2023-04-03T04:59:51;1.70;99.90
23471;DHT22;11908;50.806;4.424;2023-04-03T05:02:17;1.70;99.90
23471;DHT22;11908;50.806;4.424;2023-04-03T05:04:43;1.70;99.90
23471;DHT22;11908;50.806;4.424;2023-04-03T05:07:09;1.80;99.90
23471;DHT22;11908;50.806;4.424;2023-04-03T05:09:34;1.70;99.90
23471;DHT22;11908;50.806;4.424;2023-04-03T05:12:00;1.80;99.90
23471;DHT22;11908;50.806;4.424;2023-04-03T05:14:27;1.80;99.90
23471;DHT22;11908;50.806;4.424;2023-04-03T05:16:53;1.80;99.90
23471;DHT22;11908;50.806;4.424;2023-04-03T05:19:20;1.80;99.90
23471;DHT22;11908;50.806;4.424;2023-04-03T05:21:46;1.80;99.90
23471;DHT22;11908;50.806;4.424;2023-04-03T05:24:12;1.80;99.90
23471;DHT22;11908;50.806;4.424;2023-04-03T05:26:38;1.90;99.90
23471;DHT22;11908;50.806;4.424;2023-04-03T05:29:03;1.90;99.90
23471;DHT22;11908;50.806;4.424;2023-04-03T05:31:29;1.90;99.90
23471;DHT22;11908;50.806;4.424;2023-04-03T05:33:55;2.00;99.90
23471;DHT22;11908;50.806;4.424;2023-04-03T05:36:21;2.10;99.90
23471;DHT22;11908;50.806;4.424;2023-04-03T05:38:47;2.40;99.90
23471;DHT22;11908;50.806;4.424;2023-04-03T05:41:14;2.70;99.90
23471;DHT22;11908;50.806;4.424;2023-04-03T05:43:40;3.00;99.90
23471;DHT22;11908;50.806;4.424;2023-04-03T05:46:17;3.20;99.90
23471;DHT22;11908;50.806;4.424;2023-04-03T05:48:43;3.50;99.90
23471;DHT22;11908;50.806;4.424;2023-04-03T05:51:18;4.00;99.90
23471;DHT22;11908;50.806;4.424;2023-04-03T05:53:45;4.50;99.90
23471;DHT22;11908;50.806;4.424;2023-04-03T05:56:12;4.80;99.90
23471;DHT22;11908;50.806;4.424;2023-04-03T05:58:38;5.10;99.90
23471;DHT22;11908;50.806;4.424;2023-04-03T06:01:04;5.40;99.90
23471;DHT22;11908;50.806;4.424;2023-04-03T06:03:30;5.80;99.90
23471;DHT22;11908;50.806;4.424;2023-04-03T06:05:56;6.00;99.90
23471;DHT22;11908;50.806;4.424;2023-04-03T06:08:22;6.40;99.90
23471;DHT22;11908;50.806;4.424;2023-04-03T06:10:49;7.00;99.90
23471;DHT22;11908;50.806;4.424;2023-04-03T06:13:15;7.40;99.90
23471;DHT22;11908;50.806;4.424;2023-04-03T06:15:41;7.50;99.90
23471;DHT22;11908;50.806;4.424;2023-04-03T06:18:07;7.50;99.90
23471;DHT22;11908;50.806;4.424;2023-04-03T06:20:33;7.50;99.90
23471;DHT22;11908;50.806;4.424;2023-04-03T06:22:59;7.50;99.90
23471;DHT22;11908;50.806;4.424;2023-04-03T06:25:25;7.30;99.90
23471;DHT22;11908;50.806;4.424;2023-04-03T06:27:52;7.10;99.90
23471;DHT22;11908;50.806;4.424;2023-04-03T06:30:17;7.10;99.90
23471;DHT22;11908;50.806;4.424;2023-04-03T06:32:43;7.00;99.90
23471;DHT22;11908;50.806;4.424;2023-04-03T06:35:09;6.90;99.90
23471;DHT22;11908;50.806;4.424;2023-04-03T06:37:35;6.70;99.90
23471;DHT22;11908;50.806;4.424;2023-04-03T06:40:01;6.70;99.90
23471;DHT22;11908;50.806;4.424;2023-04-03T06:42:28;6.80;99.90
23471;DHT22;11908;50.806;4.424;2023-04-03T06:44:54;7.00;99.90
23471;DHT22;11908;50.806;4.424;2023-04-03T06:47:19;7.00;99.90
23471;DHT22;11908;50.806;4.424;2023-04-03T06:49:45;6.80;99.90
23471;DHT22;11908;50.806;4.424;2023-04-03T06:52:11;6.80;99.90
23471;DHT22;11908;50.806;4.424;2023-04-03T06:54:40;6.70;99.90
23471;DHT22;11908;50.806;4.424;2023-04-03T06:57:06;6.70;99.90
23471;DHT22;11908;50.806;4.424;2023-04-03T06:59:32;6.60;99.90
23471;DHT22;11908;50.806;4.424;2023-04-03T07:01:58;6.70;99.90
23471;DHT22;11908;50.806;4.424;2023-04-03T07:04:25;6.60;99.90
23471;DHT22;11908;50.806;4.424;2023-04-03T07:06:51;6.40;99.90
23471;DHT22;11908;50.806;4.424;2023-04-03T07:09:17;6.30;99.90
23471;DHT22;11908;50.806;4.424;2023-04-03T07:11:43;6.20;99.90
23471;DHT22;11908;50.806;4.424;2023-04-03T07:14:09;6.00;99.90
23471;DHT22;11908;50.806;4.424;2023-04-03T07:16:35;5.90;99.90
23471;DHT22;11908;50.806;4.424;2023-04-03T07:19:02;5.90;99.90
23471;DHT22;11908;50.806;4.424;2023-04-03T07:21:28;6.00;99.90
23471;DHT22;11908;50.806;4.424;2023-04-03T07:23:54;6.20;99.90
23471;DHT22;11908;50.806;4.424;2023-04-03T07:26:21;6.30;99.90
23471;DHT22;11908;50.806;4.424;2023-04-03T07:28:47;6.00;99.90
23471;DHT22;11908;50.806;4.424;2023-04-03T07:31:14;5.80;99.90
23471;DHT22;11908;50.806;4.424;2023-04-03T07:33:42;5.80;99.90
23471;DHT22;11908;50.806;4.424;2023-04-03T07:36:11;6.00;99.90
23471;DHT22;11908;50.806;4.424;2023-04-03T07:38:39;6.20;99.90
23471;DHT22;11908;50.806;4.424;2023-04-03T07:41:05;6.50;99.90
23471;DHT22;11908;50.806;4.424;2023-04-03T07:43:31;6.70;99.90
23471;DHT22;11908;50.806;4.424;2023-04-03T07:45:57;6.60;99.90
23471;DHT22;11908;50.806;4.424;2023-04-03T07:48:25;6.70;99.90
23471;DHT22;11908;50.806;4.424;2023-04-03T07:50:51;6.60;99.90
23471;DHT22;11908;50.806;4.424;2023-04-03T07:53:17;7.00;99.90
23471;DHT22;11908;50.806;4.424;2023-04-03T07:55:46;7.30;99.90
23471;DHT22;11908;50.806;4.424;2023-04-03T07:58:17;7.90;99.90
23471;DHT22;11908;50.806;4.424;2023-04-03T08:00:44;7.70;99.90
23471;DHT22;11908;50.806;4.424;2023-04-03T08:03:10;8.10;99.90
23471;DHT22;11908;50.806;4.424;2023-04-03T08:05:41;8.40;99.90
23471;DHT22;11908;50.806;4.424;2023-04-03T08:08:08;9.20;99.90
23471;DHT22;11908;50.806;4.424;2023-04-03T08:10:34;9.70;99.90
23471;DHT22;11908;50.806;4.424;2023-04-03T08:13:00;9.70;99.90
23471;DHT22;11908;50.806;4.424;2023-04-03T08:15:26;9.30;99.90
23471;DHT22;11908;50.806;4.424;2023-04-03T08:17:52;9.30;99.90
23471;DHT22;11908;50.806;4.424;2023-04-03T08:20:18;10.60;99.90
23471;DHT22;11908;50.806;4.424;2023-04-03T08:22:44;11.50;99.90
23471;DHT22;11908;50.806;4.424;2023-04-03T08:25:10;11.90;99.90
23471;DHT22;11908;50.806;4.424;2023-04-03T08:27:36;11.50;99.90
23471;DHT22;11908;50.806;4.424;2023-04-03T08:30:03;11.50;99.90
23471;DHT22;11908;50.806;4.424;2023-04-03T08:32:29;11.40;99.90
23471;DHT22;11908;50.806;4.424;2023-04-03T08:34:55;12.30;99.90
23471;DHT22;11908;50.806;4.424;2023-04-03T08:37:21;13.00;99.90
23471;DHT22;11908;50.806;4.424;2023-04-03T08:39:47;12.60;99.90
23471;DHT22;11908;50.806;4.424;2023-04-03T08:47:58;11.50;99.90
23471;DHT22;11908;50.806;4.424;2023-04-03T08:50:47;11.10;99.90
23471;DHT22;11908;50.806;4.424;2023-04-03T08:53:20;11.10;99.90
23471;DHT22;11908;50.806;4.424;2023-04-03T08:55:51;11.70;99.90
23471;DHT22;11908;50.806;4.424;2023-04-03T08:58:19;11.70;99.90
23471;DHT22;11908;50.806;4.424;2023-04-03T09:00:49;10.40;99.90
23471;DHT22;11908;50.806;4.424;2023-04-03T09:03:18;10.40;99.90
23471;DHT22;11908;50.806;4.424;2023-04-03T09:06:03;10.60;99.90
23471;DHT22;11908;50.806;4.424;2023-04-03T09:08:36;10.90;99.90
23471;DHT22;11908;50.806;4.424;2023-04-03T09:11:16;11.10;99.90
23471;DHT22;11908;50.806;4.424;2023-04-03T09:16:35;11.20;99.90
23471;DHT22;11908;50.806;4.424;2023-04-03T09:19:21;11.40;99.90
23471;DHT22;11908;50.806;4.424;2023-04-03T09:21:50;11.70;99.90
23471;DHT22;11908;50.806;4.424;2023-04-03T09:24:16;12.00;99.90
23471;DHT22;11908;50.806;4.424;2023-04-03T09:26:51;12.10;99.90
23471;DHT22;11908;50.806;4.424;2023-04-03T09:29:22;12.50;99.90
23471;DHT22;11908;50.806;4.424;2023-04-03T09:31:50;12.10;99.90
23471;DHT22;11908;50.806;4.424;2023-04-03T09:36:53;12.10;99.90
23471;DHT22;11908;50.806;4.424;2023-04-03T09:39:26;12.60;99.90
23471;DHT22;11908;50.806;4.424;2023-04-03T09:42:05;12.90;99.90
23471;DHT22;11908;50.806;4.424;2023-04-03T09:44:37;12.80;99.90
23471;DHT22;11908;50.806;4.424;2023-04-03T09:49:48;12.40;99.90
23471;DHT22;11908;50.806;4.424;2023-04-03T09:52:24;12.50;99.90
23471;DHT22;11908;50.806;4.424;2023-04-03T09:54:50;12.30;99.90
23471;DHT22;11908;50.806;4.424;2023-04-03T09:57:16;11.60;99.90
23471;DHT22;11908;50.806;4.424;2023-04-03T09:59:56;11.20;99.90
23471;DHT22;11908;50.806;4.424;2023-04-03T10:04:58;12.10;99.90
23471;DHT22;11908;50.806;4.424;2023-04-03T10:07:36;12.30;99.90
23471;DHT22;11908;50.806;4.424;2023-04-03T10:12:43;12.80;99.90
23471;DHT22;11908;50.806;4.424;2023-04-03T10:15:15;12.00;99.90
23471;DHT22;11908;50.806;4.424;2023-04-03T10:20:31;12.20;99.90
23471;DHT22;11908;50.806;4.424;2023-04-03T10:23:14;12.20;99.90
23471;DHT22;11908;50.806;4.424;2023-04-03T10:31:37;13.60;99.90
23471;DHT22;11908;50.806;4.424;2023-04-03T10:34:30;14.00;99.90
23471;DHT22;11908;50.806;4.424;2023-04-03T10:37:21;12.90;99.90
23471;DHT22;11908;50.806;4.424;2023-04-03T10:40:02;13.10;99.90
23471;DHT22;11908;50.806;4.424;2023-04-03T10:42:56;13.80;99.90
23471;DHT22;11908;50.806;4.424;2023-04-03T10:45:42;14.00;99.90
23471;DHT22;11908;50.806;4.424;2023-04-03T10:48:57;13.50;99.90
23471;DHT22;11908;50.806;4.424;2023-04-03T10:51:37;13.10;99.90
23471;DHT22;11908;50.806;4.424;2023-04-03T10:54:26;12.90;99.90
23471;DHT22;11908;50.806;4.424;2023-04-03T10:57:01;12.80;99.90
23471;DHT22;11908;50.806;4.424;2023-04-03T11:02:19;12.60;99.90
23471;DHT22;11908;50.806;4.424;2023-04-03T11:04:53;12.20;99.90
23471;DHT22;11908;50.806;4.424;2023-04-03T11:07:23;12.20;99.90
23471;DHT22;11908;50.806;4.424;2023-04-03T11:09:53;12.30;99.90
23471;DHT22;11908;50.806;4.424;2023-04-03T11:12:36;12.40;99.90
23471;DHT22;11908;50.806;4.424;2023-04-03T11:15:04;13.10;99.90
23471;DHT22;11908;50.806;4.424;2023-04-03T11:17:37;13.10;99.90
23471;DHT22;11908;50.806;4.424;2023-04-03T11:20:21;13.10;99.90
23471;DHT22;11908;50.806;4.424;2023-04-03T11:25:50;12.30;99.90
23471;DHT22;11908;50.806;4.424;2023-04-03T11:28:17;12.60;99.90
23471;DHT22;11908;50.806;4.424;2023-04-03T11:31:06;12.30;99.90
23471;DHT22;11908;50.806;4.424;2023-04-03T11:36:56;12.40;99.90
23471;DHT22;11908;50.806;4.424;2023-04-03T11:39:35;12.20;99.90
23471;DHT22;11908;50.806;4.424;2023-04-03T11:42:30;12.30;99.90
23471;DHT22;11908;50.806;4.424;2023-04-03T11:47:54;12.40;99.90
23471;DHT22;11908;50.806;4.424;2023-04-03T12:00:47;12.00;99.40
23471;DHT22;11908;50.806;4.424;2023-04-03T12:08:47;12.10;99.90
23471;DHT22;11908;50.806;4.424;2023-04-03T12:11:14;11.50;99.20
23471;DHT22;11908;50.806;4.424;2023-04-03T12:14:12;11.50;99.90
23471;DHT22;11908;50.806;4.424;2023-04-03T12:26:50;10.90;99.90
23471;DHT22;11908;50.806;4.424;2023-04-03T12:29:38;11.20;99.90
23471;DHT22;11908;50.806;4.424;2023-04-03T12:38:10;10.80;99.90
23471;DHT22;11908;50.806;4.424;2023-04-03T12:43:09;11.10;99.90
23471;DHT22;11908;50.806;4.424;2023-04-03T12:48:25;10.90;99.80
23471;DHT22;11908;50.806;4.424;2023-04-03T12:50:52;11.20;98.20
23471;DHT22;11908;50.806;4.424;2023-04-03T12:53:33;11.40;97.80
23471;DHT22;11908;50.806;4.424;2023-04-03T12:56:26;11.00;96.00
23471;DHT22;11908;50.806;4.424;2023-04-03T12:58:54;10.80;96.70
23471;DHT22;11908;50.806;4.424;2023-04-03T13:01:24;10.90;98.90
23471;DHT22;11908;50.806;4.424;2023-04-03T13:03:55;10.60;96.90
23471;DHT22;11908;50.806;4.424;2023-04-03T13:06:38;10.40;97.10
23471;DHT22;11908;50.806;4.424;2023-04-03T13:09:05;10.40;97.70
23471;DHT22;11908;50.806;4.424;2023-04-03T13:11:36;10.40;97.20
23471;DHT22;11908;50.806;4.424;2023-04-03T13:14:13;10.40;97.20
23471;DHT22;11908;50.806;4.424;2023-04-03T13:16:40;10.50;97.20
23471;DHT22;11908;50.806;4.424;2023-04-03T13:19:16;10.50;97.80
23471;DHT22;11908;50.806;4.424;2023-04-03T13:21:43;10.40;95.80
23471;DHT22;11908;50.806;4.424;2023-04-03T13:24:10;10.40;94.80
23471;DHT22;11908;50.806;4.424;2023-04-03T13:26:36;10.40;97.10
23471;DHT22;11908;50.806;4.424;2023-04-03T13:29:06;10.60;92.80
23471;DHT22;11908;50.806;4.424;2023-04-03T13:31:34;10.20;93.40
23471;DHT22;11908;50.806;4.424;2023-04-03T13:34:10;10.30;93.90
23471;DHT22;11908;50.806;4.424;2023-04-03T13:36:40;10.50;95.80
23471;DHT22;11908;50.806;4.424;2023-04-03T13:39:30;10.60;95.90
23471;DHT22;11908;50.806;4.424;2023-04-03T13:42:02;10.60;94.80
23471;DHT22;11908;50.806;4.424;2023-04-03T13:44:40;10.50;94.80
23471;DHT22;11908;50.806;4.424;2023-04-03T13:47:21;10.40;96.30
23471;DHT22;11908;50.806;4.424;2023-04-03T13:53:14;10.50;93.70
23471;DHT22;11908;50.806;4.424;2023-04-03T13:56:22;10.30;95.90
23471;DHT22;11908;50.806;4.424;2023-04-03T13:59:05;10.20;96.70
23471;DHT22;11908;50.806;4.424;2023-04-03T14:04:23;10.30;97.60
23471;DHT22;11908;50.806;4.424;2023-04-03T14:06:51;10.50;97.50
23471;DHT22;11908;50.806;4.424;2023-04-03T14:09:18;10.40;97.60
23471;DHT22;11908;50.806;4.424;2023-04-03T14:11:45;10.60;98.40
23471;DHT22;11908;50.806;4.424;2023-04-03T14:14:15;10.50;98.40
23471;DHT22;11908;50.806;4.424;2023-04-03T14:16:44;10.50;98.40
23471;DHT22;11908;50.806;4.424;2023-04-03T14:19:28;10.40;98.30
23471;DHT22;11908;50.806;4.424;2023-04-03T14:21:55;10.30;99.40
23471;DHT22;11908;50.806;4.424;2023-04-03T14:24:22;10.30;98.10
23471;DHT22;11908;50.806;4.424;2023-04-03T14:26:53;10.10;95.60
23471;DHT22;11908;50.806;4.424;2023-04-03T14:29:19;10.10;99.00
23471;DHT22;11908;50.806;4.424;2023-04-03T14:31:47;10.20;98.70
23471;DHT22;11908;50.806;4.424;2023-04-03T14:34:13;10.30;97.30
23471;DHT22;11908;50.806;4.424;2023-04-03T14:36:41;10.20;96.50
23471;DHT22;11908;50.806;4.424;2023-04-03T14:39:10;10.20;96.60
23471;DHT22;11908;50.806;4.424;2023-04-03T14:41:36;10.20;93.60
23471;DHT22;11908;50.806;4.424;2023-04-03T14:44:02;10.20;94.60
23471;DHT22;11908;50.806;4.424;2023-04-03T14:46:39;10.30;95.60
23471;DHT22;11908;50.806;4.424;2023-04-03T14:49:19;10.30;94.90
23471;DHT22;11908;50.806;4.424;2023-04-03T14:51:47;10.30;96.30
23471;DHT22;11908;50.806;4.424;2023-04-03T14:54:18;10.30;92.90
23471;DHT22;11908;50.806;4.424;2023-04-03T14:56:44;10.20;93.20
23471;DHT22;11908;50.806;4.424;2023-04-03T14:59:14;10.20;95.80
23471;DHT22;11908;50.806;4.424;2023-04-03T15:01:40;10.20;94.50
23471;DHT22;11908;50.806;4.424;2023-04-03T15:04:18;10.20;94.50
23471;DHT22;11908;50.806;4.424;2023-04-03T15:06:45;10.40;96.00
23471;DHT22;11908;50.806;4.424;2023-04-03T15:09:23;10.30;93.40
23471;DHT22;11908;50.806;4.424;2023-04-03T15:11:51;10.20;94.80
23471;DHT22;11908;50.806;4.424;2023-04-03T15:14:17;10.30;94.80
23471;DHT22;11908;50.806;4.424;2023-04-03T15:16:43;10.30;94.50
23471;DHT22;11908;50.806;4.424;2023-04-03T15:19:10;10.20;94.80
23471;DHT22;11908;50.806;4.424;2023-04-03T15:21:36;9.90;95.50
23471;DHT22;11908;50.806;4.424;2023-04-03T15:24:02;9.90;96.20
23471;DHT22;11908;50.806;4.424;2023-04-03T15:26:28;9.90;96.80
23471;DHT22;11908;50.806;4.424;2023-04-03T15:28:53;9.90;97.30
23471;DHT22;11908;50.806;4.424;2023-04-03T15:31:19;9.90;97.70
23471;DHT22;11908;50.806;4.424;2023-04-03T15:33:45;9.90;98.10
23471;DHT22;11908;50.806;4.424;2023-04-03T15:36:11;9.80;97.30
23471;DHT22;11908;50.806;4.424;2023-04-03T15:38:36;9.80;99.00
23471;DHT22;11908;50.806;4.424;2023-04-03T15:41:04;10.00;99.10
23471;DHT22;11908;50.806;4.424;2023-04-03T15:43:29;10.00;97.60
23471;DHT22;11908;50.806;4.424;2023-04-03T15:45:58;10.00;98.80
23471;DHT22;11908;50.806;4.424;2023-04-03T15:48:26;10.00;99.10
23471;DHT22;11908;50.806;4.424;2023-04-03T15:50:53;10.00;99.80
23471;DHT22;11908;50.806;4.424;2023-04-03T15:53:18;10.00;98.70
23471;DHT22;11908;50.806;4.424;2023-04-03T15:55:44;10.00;98.70
23471;DHT22;11908;50.806;4.424;2023-04-03T15:58:10;9.90;98.60
23471;DHT22;11908;50.806;4.424;2023-04-03T16:00:36;9.80;99.90
23471;DHT22;11908;50.806;4.424;2023-04-03T16:03:10;9.90;99.90
23471;DHT22;11908;50.806;4.424;2023-04-03T16:05:37;9.90;99.90
23471;DHT22;11908;50.806;4.424;2023-04-03T16:08:04;9.90;99.90
23471;DHT22;11908;50.806;4.424;2023-04-03T16:10:30;9.90;99.90
23471;DHT22;11908;50.806;4.424;2023-04-03T16:12:56;9.80;99.90
23471;DHT22;11908;50.806;4.424;2023-04-03T16:15:23;9.80;99.90
23471;DHT22;11908;50.806;4.424;2023-04-03T16:17:49;9.90;99.90
23471;DHT22;11908;50.806;4.424;2023-04-03T16:20:16;9.90;99.90
23471;DHT22;11908;50.806;4.424;2023-04-03T16:22:42;9.80;99.90
23471;DHT22;11908;50.806;4.424;2023-04-03T16:25:08;9.80;99.90
23471;DHT22;11908;50.806;4.424;2023-04-03T16:27:34;9.80;99.90
23471;DHT22;11908;50.806;4.424;2023-04-03T16:30:00;9.70;99.90
23471;DHT22;11908;50.806;4.424;2023-04-03T16:32:28;9.70;99.90
23471;DHT22;11908;50.806;4.424;2023-04-03T16:34:55;9.80;99.90
23471;DHT22;11908;50.806;4.424;2023-04-03T16:37:21;9.70;99.90
23471;DHT22;11908;50.806;4.424;2023-04-03T16:39:46;9.60;99.90
23471;DHT22;11908;50.806;4.424;2023-04-03T16:42:12;9.60;99.90
23471;DHT22;11908;50.806;4.424;2023-04-03T16:44:38;9.70;99.90
23471;DHT22;11908;50.806;4.424;2023-04-03T16:47:05;9.70;99.90
23471;DHT22;11908;50.806;4.424;2023-04-03T16:49:31;9.70;99.90
23471;DHT22;11908;50.806;4.424;2023-04-03T16:52:03;9.70;99.90
23471;DHT22;11908;50.806;4.424;2023-04-03T16:54:30;9.80;99.90
23471;DHT22;11908;50.806;4.424;2023-04-03T16:56:56;9.70;99.90
23471;DHT22;11908;50.806;4.424;2023-04-03T16:59:22;9.70;99.90
23471;DHT22;11908;50.806;4.424;2023-04-03T17:01:48;9.60;99.90
23471;DHT22;11908;50.806;4.424;2023-04-03T17:04:14;9.50;99.90
23471;DHT22;11908;50.806;4.424;2023-04-03T17:06:40;9.50;99.90
23471;DHT22;11908;50.806;4.424;2023-04-03T17:09:06;9.50;99.90
23471;DHT22;11908;50.806;4.424;2023-04-03T17:11:32;9.50;99.90
23471;DHT22;11908;50.806;4.424;2023-04-03T17:13:59;9.50;99.90
23471;DHT22;11908;50.806;4.424;2023-04-03T17:16:26;9.50;99.90
23471;DHT22;11908;50.806;4.424;2023-04-03T17:18:52;9.50;99.90
23471;DHT22;11908;50.806;4.424;2023-04-03T17:21:18;9.40;99.90